Time;durP1;ratioP1;P1;durP2;ratioP2;P2;SDS_P1;SDS_P2;PMS_P1;PMS_P2;Temp;Humidity;BMP_temperature;BMP_pressure;BME280_temperature;BME280_humidity;BME280_pressure;Samples;Min_cycle;Max_cycle;Signal;HPM_P1;HPM_P2
2022/05/25 00:02:00;;;;;;;4.05;1.60;;;21.50;77.70;;;;;;5035016;28;20045;-67
2022/05/25 00:04:26;;;;;;;3.08;1.50;;;21.50;80.60;;;;;;5057023;28;20102;-67
2022/05/25 00:06:52;;;;;;;2.50;1.30;;;;;;;;;;5048572;28;20040;-67
2022/05/25 00:09:18;;;;;;;6.18;1.45;;;21.50;80.40;;;;;;5106335;28;20041;-67
2022/05/25 00:11:44;;;;;;;5.40;1.63;;;21.30;80.70;;;;;;5074852;28;20098;-67
2022/05/25 00:14:10;;;;;;;3.58;1.45;;;21.50;80.40;;;;;;5056864;28;20044;-67
2022/05/25 00:16:35;;;;;;;2.50;1.30;;;19.70;76.60;;;;;;5055808;28;20048;-67
2022/05/25 00:21:45;;;;;;;3.38;1.48;;;21.40;81.00;;;;;;5072921;28;20055;-67
2022/05/25 00:24:11;;;;;;;5.50;1.70;;;21.40;80.30;;;;;;5074162;28;20155;-67
2022/05/25 00:26:37;;;;;;;3.78;1.70;;;21.30;80.20;;;;;;5073029;28;20060;-67
2022/05/25 00:29:03;;;;;;;3.25;1.70;;;21.40;80.40;;;;;;5071416;28;20037;-67
2022/05/25 00:31:30;;;;;;;4.60;1.90;;;21.00;77.30;;;;;;5083846;28;20045;-67
2022/05/25 00:33:57;;;;;;;3.70;1.55;;;;;;;;;;5023969;28;20044;-67
2022/05/25 00:36:22;;;;;;;5.28;1.90;;;21.40;80.40;;;;;;5055141;28;20409;-67
2022/05/25 00:38:50;;;;;;;8.93;2.35;;;;;;;;;;5072019;28;20127;-67
2022/05/25 00:41:15;;;;;;;5.00;1.70;;;21.20;80.10;;;;;;5073209;28;20159;-66
2022/05/25 00:43:42;;;;;;;3.40;1.65;;;21.40;80.30;;;;;;5072690;28;20079;-67
2022/05/25 00:46:13;;;;;;;3.55;1.65;;;21.10;77.40;;;;;;5106749;28;20054;-67
2022/05/25 00:48:50;;;;;;;2.42;1.50;;;21.20;80.00;;;;;;5072063;28;20049;-67
2022/05/25 00:51:22;;;;;;;3.88;1.85;;;21.10;79.00;;;;;;5067877;28;20485;-67
2022/05/25 00:54:13;;;;;;;6.20;1.93;;;21.30;80.20;;;;;;5088166;28;20080;-65
2022/05/25 00:56:41;;;;;;;3.60;1.70;;;21.30;76.40;;;;;;5104915;28;20428;-66
2022/05/25 00:59:12;;;;;;;4.25;2.03;;;21.20;80.20;;;;;;5105971;28;20131;-65
2022/05/25 01:01:38;;;;;;;2.88;1.65;;;21.30;80.10;;;;;;5054686;28;20059;-65
2022/05/25 01:04:04;;;;;;;4.90;2.20;;;21.20;80.20;;;;;;5104770;28;20039;-65
2022/05/25 01:06:43;;;;;;;3.50;1.92;;;21.30;80.50;;;;;;5072456;28;20052;-65
2022/05/25 01:09:17;;;;;;;4.82;2.13;;;21.20;77.80;;;;;;5071346;28;20040;-65
2022/05/25 01:12:04;;;;;;;2.95;1.67;;;21.20;75.90;;;;;;5088932;28;20058;-65
2022/05/25 01:14:39;;;;;;;3.67;1.80;;;21.20;80.20;;;;;;5055845;28;20467;-65
2022/05/25 01:17:16;;;;;;;5.47;1.90;;;21.10;80.10;;;;;;5105838;28;20056;-66
2022/05/25 01:20:06;;;;;;;6.05;2.10;;;21.50;78.00;;;;;;5039018;28;20044;-65
2022/05/25 01:22:59;;;;;;;3.60;2.10;;;21.20;80.20;;;;;;5022087;28;20048;-65
2022/05/25 01:25:56;;;;;;;4.13;2.13;;;21.10;76.40;;;;;;5097641;28;20040;-67
2022/05/25 01:28:38;;;;;;;4.28;2.28;;;21.30;80.40;;;;;;5070015;28;20079;-65
2022/05/25 01:31:10;;;;;;;3.17;1.90;;;21.10;80.30;;;;;;5038907;28;20501;-66
2022/05/25 01:33:41;;;;;;;4.30;2.00;;;21.00;80.00;;;;;;5041555;28;20159;-67
2022/05/25 01:36:21;;;;;;;5.85;2.00;;;21.30;76.00;;;;;;5070345;28;20130;-67
2022/05/25 01:38:50;;;;;;;3.85;2.08;;;21.40;80.20;;;;;;5067556;28;20048;-67
2022/05/25 01:41:42;;;;;;;4.00;2.30;;;21.10;77.40;;;;;;5068223;28;20551;-67
2022/05/25 01:44:15;;;;;;;4.00;2.00;;;21.20;76.20;;;;;;5048692;28;20219;-67
2022/05/25 01:46:42;;;;;;;;;;;20.30;77.10;;;;;;5070832;28;20298;-66
2022/05/25 01:49:11;;;;;;;6.47;2.30;;;21.10;80.20;;;;;;5071713;28;20439;-66
2022/05/25 01:52:02;;;;;;;4.15;2.30;;;21.10;80.10;;;;;;5055262;28;20052;-66
2022/05/25 01:54:31;;;;;;;6.03;2.42;;;21.40;76.30;;;;;;5068690;28;20051;-65
2022/05/25 01:56:58;;;;;;;5.57;2.40;;;21.10;80.10;;;;;;5057236;28;20088;-66
2022/05/25 01:59:23;;;;;;;4.65;2.30;;;21.10;80.20;;;;;;5092733;28;20055;-65
2022/05/25 02:04:46;;;;;;;4.10;2.13;;;21.00;79.90;;;;;;5075552;28;20123;-66
2022/05/25 02:07:35;;;;;;;3.90;2.13;;;21.10;79.90;;;;;;5076050;28;20047;-65
2022/05/25 02:10:36;;;;;;;4.63;2.20;;;21.00;75.90;;;;;;5088192;28;20504;-65
2022/05/25 02:13:19;;;;;;;4.60;2.33;;;20.90;74.90;;;;;;5053842;28;20588;-67
2022/05/25 02:16:11;;;;;;;4.43;2.33;;;21.20;76.10;;;;;;5036369;28;20088;-66
2022/05/25 02:18:40;;;;;;;3.88;2.40;;;21.20;80.50;;;;;;5048457;28;20068;-64
2022/05/25 02:21:10;;;;;;;3.88;2.20;;;21.50;80.50;;;;;;5058383;28;20048;-65
2022/05/25 02:23:41;;;;;;;4.72;2.45;;;21.20;80.00;;;;;;5033054;28;20163;-66
2022/05/25 02:26:14;;;;;;;4.75;2.50;;;20.90;79.90;;;;;;5037125;28;20049;-66
2022/05/25 02:28:43;;;;;;;;;;;20.90;77.90;;;;;;5044659;28;20079;-66
2022/05/25 02:31:13;;;;;;;5.43;2.70;;;21.00;77.50;;;;;;5038001;28;19921;-66
2022/05/25 02:33:42;;;;;;;4.40;2.40;;;20.90;79.80;;;;;;5021007;28;20506;-66
2022/05/25 02:36:09;;;;;;;4.20;2.50;;;21.00;77.40;;;;;;5045040;28;20053;-66
2022/05/25 02:38:37;;;;;;;4.85;3.00;;;20.90;79.80;;;;;;5044256;28;20143;-67
2022/05/25 02:41:10;;;;;;;6.22;3.08;;;21.00;79.90;;;;;;5031402;28;20424;-66
2022/05/25 02:43:36;;;;;;;5.22;2.80;;;21.00;80.20;;;;;;5046849;28;20052;-66
2022/05/25 02:46:03;;;;;;;4.82;2.72;;;21.10;76.20;;;;;;5039137;28;20051;-65
2022/05/25 02:48:29;;;;;;;4.38;2.60;;;;;;;;;;5050274;28;20053;-66
2022/05/25 02:50:55;;;;;;;4.20;2.80;;;21.10;79.90;;;;;;5073078;28;20045;-65
2022/05/25 02:53:22;;;;;;;6.07;2.92;;;20.80;79.70;;;;;;5108168;28;20109;-65
2022/05/25 02:55:49;;;;;;;6.15;3.10;;;20.90;80.00;;;;;;5076356;28;20109;-64
2022/05/25 02:58:15;;;;;;;5.00;3.05;;;20.90;77.10;;;;;;5079443;28;20080;-65
2022/05/25 03:00:41;;;;;;;4.88;2.58;;;21.00;79.80;;;;;;5074313;28;20106;-66
2022/05/25 03:03:06;;;;;;;4.93;2.90;;;21.00;79.80;;;;;;5074804;28;20423;-65
2022/05/25 03:05:32;;;;;;;5.05;3.08;;;20.90;79.70;;;;;;5074300;28;20040;-65
2022/05/25 03:07:58;;;;;;;5.57;2.80;;;20.90;79.80;;;;;;5073778;28;20055;-65
2022/05/25 03:10:23;;;;;;;5.97;3.30;;;20.90;79.70;;;;;;5107699;28;20041;-66
2022/05/25 03:12:49;;;;;;;5.75;3.20;;;21.10;79.80;;;;;;5072199;28;20048;-67
2022/05/25 03:15:20;;;;;;;6.78;3.17;;;20.90;79.70;;;;;;5083357;28;20032;-67
2022/05/25 03:17:46;;;;;;;6.30;3.30;;;20.70;79.60;;;;;;5041834;28;20429;-68
2022/05/25 03:20:12;;;;;;;5.70;3.20;;;21.10;77.10;;;;;;5057739;28;20098;-67
2022/05/25 03:22:40;;;;;;;5.38;3.30;;;20.80;79.80;;;;;;5073951;28;20048;-67
2022/05/25 03:25:06;;;;;;;6.35;3.22;;;20.60;79.70;;;;;;5058358;28;20041;-67
2022/05/25 03:27:32;;;;;;;5.05;3.17;;;21.00;79.80;;;;;;5072905;28;20474;-66
2022/05/25 03:29:58;;;;;;;6.85;3.33;;;;;;;;;;5057309;28;20051;-67
2022/05/25 03:32:24;;;;;;;5.00;3.25;;;20.80;80.00;;;;;;5073411;28;20048;-67
2022/05/25 03:34:49;;;;;;;7.40;3.53;;;20.90;79.80;;;;;;5107961;28;20537;-67
2022/05/25 03:37:15;;;;;;;5.47;3.55;;;20.80;79.80;;;;;;5074597;28;20056;-67
2022/05/25 03:39:41;;;;;;;7.15;3.63;;;21.00;80.00;;;;;;5075109;28;20051;-66
2022/05/25 03:42:07;;;;;;;5.95;3.35;;;20.80;79.80;;;;;;5089826;28;20429;-66
2022/05/25 03:44:33;;;;;;;6.10;3.53;;;;;;;;;;5091148;28;20171;-66
2022/05/25 03:47:00;;;;;;;6.35;3.60;;;;;;;;;;5088903;28;20040;-66
2022/05/25 03:49:26;;;;;;;6.43;3.40;;;21.00;75.20;;;;;;5074045;28;20044;-67
2022/05/25 03:51:52;;;;;;;6.63;3.83;;;;;;;;;;5056609;28;20045;-67
2022/05/25 03:54:18;;;;;;;6.00;3.67;;;;;;;;;;5074548;28;20044;-67
2022/05/25 03:56:44;;;;;;;7.47;3.70;;;;;;;;;;5075561;28;20052;-67
2022/05/25 03:59:10;;;;;;;5.40;3.58;;;21.10;80.50;;;;;;5075238;28;20094;-66
2022/05/25 04:01:36;;;;;;;5.60;3.50;;;21.00;79.90;;;;;;5074414;28;20044;-66
2022/05/25 04:04:02;;;;;;;6.10;3.08;;;;;;;;;;5056025;28;20036;-65
2022/05/25 04:06:28;;;;;;;5.65;3.47;;;20.80;74.90;;;;;;5055327;28;20044;-65
2022/05/25 04:08:53;;;;;;;6.40;3.85;;;21.00;80.00;;;;;;5073770;28;20394;-65
2022/05/25 04:11:19;;;;;;;6.18;3.45;;;21.10;80.10;;;;;;5107159;28;20509;-65
2022/05/25 04:13:45;;;;;;;6.55;3.40;;;21.00;79.70;;;;;;5106712;28;20028;-66
2022/05/25 04:16:11;;;;;;;5.38;3.58;;;21.20;79.80;;;;;;5073330;28;20052;-66
2022/05/25 04:18:37;;;;;;;7.20;4.00;;;;;;;;;;5074072;28;20048;-67
2022/05/25 04:21:03;;;;;;;4.93;3.10;;;21.10;74.90;;;;;;5073797;28;20040;-65
2022/05/25 04:23:28;;;;;;;5.47;3.72;;;21.00;79.70;;;;;;5074156;28;20110;-65
2022/05/25 04:25:55;;;;;;;5.20;3.20;;;;;;;;;;5073581;28;20048;-67
2022/05/25 04:28:20;;;;;;;6.20;3.22;;;21.20;79.70;;;;;;5055641;28;20047;-65
2022/05/25 04:30:46;;;;;;;6.18;3.28;;;21.20;76.80;;;;;;5090348;28;20044;-66
2022/05/25 04:33:13;;;;;;;5.35;3.50;;;21.40;79.80;;;;;;5072612;28;20044;-66
2022/05/25 04:35:39;;;;;;;5.57;2.97;;;21.30;79.70;;;;;;5073637;28;20068;-67
2022/05/25 04:38:06;;;;;;;6.47;3.70;;;21.10;79.90;;;;;;5071690;28;20514;-66
2022/05/25 04:40:40;;;;;;;6.47;3.33;;;21.40;79.80;;;;;;5073133;28;20052;-65
2022/05/25 04:43:09;;;;;;;6.75;3.40;;;21.30;75.80;;;;;;5073559;28;20393;-66
2022/05/25 04:45:37;;;;;;;5.80;3.70;;;21.40;79.80;;;;;;5088604;28;20480;-67
2022/05/25 04:48:03;;;;;;;5.60;3.53;;;21.50;79.90;;;;;;5074280;28;20113;-66
2022/05/25 04:50:33;;;;;;;6.18;3.40;;;21.60;76.70;;;;;;5071838;28;20509;-67
2022/05/25 04:52:59;;;;;;;4.55;2.60;;;21.40;79.60;;;;;;5104797;28;20039;-66
2022/05/25 04:58:21;;;;;;;6.72;3.28;;;21.50;79.80;;;;;;5073316;28;20490;-66
2022/05/25 05:00:47;;;;;;;5.45;3.45;;;21.80;79.50;;;;;;5072984;28;20126;-67
2022/05/25 05:03:13;;;;;;;6.03;3.55;;;21.70;76.20;;;;;;5071520;28;20037;-65
2022/05/25 05:05:39;;;;;;;6.78;3.33;;;21.90;79.00;;;;;;5073260;28;20501;-67
2022/05/25 05:08:06;;;;;;;5.60;3.30;;;22.20;75.90;;;;;;5072924;28;20105;-67
2022/05/25 05:10:32;;;;;;;5.75;3.25;;;22.30;78.40;;;;;;5074012;28;20388;-67
2022/05/25 05:12:58;;;;;;;6.00;3.30;;;22.50;78.30;;;;;;5072079;28;20119;-67
2022/05/25 05:15:24;;;;;;;5.50;2.90;;;22.70;78.00;;;;;;5071778;28;20051;-67
2022/05/25 05:17:49;;;;;;;6.50;3.58;;;22.40;75.40;;;;;;5070181;28;20451;-66
2022/05/25 05:20:15;;;;;;;5.57;3.10;;;22.50;74.80;;;;;;5073113;28;20097;-67
2022/05/25 05:22:41;;;;;;;5.55;3.20;;;22.70;74.80;;;;;;5105262;28;20151;-67
2022/05/25 05:25:07;;;;;;;8.20;3.28;;;22.90;74.60;;;;;;5072203;28;20044;-67
2022/05/25 05:27:34;;;;;;;5.10;2.95;;;23.00;74.10;;;;;;5071651;28;20559;-66
2022/05/25 05:30:02;;;;;;;4.63;2.90;;;23.00;74.60;;;;;;5071783;28;20045;-67
2022/05/25 05:32:30;;;;;;;7.32;3.10;;;23.10;74.40;;;;;;5071195;28;20101;-66
2022/05/25 05:34:57;;;;;;;5.60;3.15;;;23.30;74.10;;;;;;5055403;28;20052;-67
2022/05/25 05:37:31;;;;;;;7.55;3.05;;;23.50;74.10;;;;;;5070418;28;20056;-67
2022/05/25 05:39:57;;;;;;;6.13;2.83;;;23.60;72.50;;;;;;5072100;28;20048;-67
2022/05/25 05:42:23;;;;;;;8.18;2.90;;;23.50;73.70;;;;;;5071162;28;20051;-66
2022/05/25 05:45:03;;;;;;;6.45;3.20;;;23.70;73.50;;;;;;5035043;28;20041;-67
2022/05/25 05:47:32;;;;;;;5.18;3.00;;;23.70;73.50;;;;;;5053450;28;20055;-66
2022/05/25 05:49:58;;;;;;;5.57;3.10;;;23.90;75.90;;;;;;5038496;28;20041;-66
2022/05/25 05:52:25;;;;;;;4.50;2.83;;;23.70;73.10;;;;;;5071927;28;20409;-66
2022/05/25 05:54:50;;;;;;;4.22;2.50;;;24.00;73.40;;;;;;5081302;28;20389;-67
2022/05/25 05:57:16;;;;;;;5.13;3.00;;;23.90;73.10;;;;;;5087169;28;20053;-66
2022/05/25 05:59:42;;;;;;;5.78;3.08;;;24.20;73.00;;;;;;5087485;28;20102;-67
2022/05/25 06:02:08;;;;;;;6.20;3.08;;;24.10;73.10;;;;;;5034670;28;20045;-67
2022/05/25 06:04:34;;;;;;;5.45;3.47;;;24.20;72.80;;;;;;5053971;28;20040;-66
2022/05/25 06:06:59;;;;;;;8.15;3.67;;;24.30;72.80;;;;;;5071951;28;20497;-66
2022/05/25 06:09:25;;;;;;;5.78;2.70;;;24.00;72.50;;;;;;5071029;28;20067;-66
2022/05/25 06:11:51;;;;;;;5.47;2.95;;;24.30;72.60;;;;;;5055349;28;20504;-66
2022/05/25 06:14:17;;;;;;;4.53;3.00;;;24.40;72.50;;;;;;5070327;28;20044;-66
2022/05/25 06:19:27;;;;;;;6.47;2.78;;;24.50;71.50;;;;;;5071500;28;20054;-67
2022/05/25 06:21:58;;;;;;;6.03;2.80;;;24.40;72.30;;;;;;5072324;28;20040;-67
2022/05/25 06:24:24;;;;;;;5.70;3.00;;;24.40;72.70;;;;;;5070551;28;20048;-68
2022/05/25 06:26:49;;;;;;;4.95;3.15;;;24.40;72.20;;;;;;5071570;28;20059;-67
2022/05/25 06:29:17;;;;;;;6.75;3.35;;;24.50;72.10;;;;;;5101811;28;20057;-67
2022/05/25 06:31:43;;;;;;;5.25;3.45;;;24.40;72.20;;;;;;5072224;28;20052;-67
2022/05/25 06:34:09;;;;;;;5.50;3.63;;;24.40;72.10;;;;;;5067448;28;20406;-67
2022/05/25 06:36:35;;;;;;;5.45;3.65;;;24.30;72.00;;;;;;5060607;28;20068;-67
2022/05/25 06:39:01;;;;;;;7.25;4.40;;;24.50;71.90;;;;;;5070883;28;20052;-68
2022/05/25 06:41:28;;;;;;;6.85;3.63;;;24.60;72.20;;;;;;5072139;28;20060;-68
2022/05/25 06:43:54;;;;;;;8.52;4.03;;;24.30;72.20;;;;;;5074674;28;20558;-68
2022/05/25 06:46:20;;;;;;;10.75;4.50;;;24.40;72.50;;;;;;5074515;28;20393;-68
2022/05/25 06:48:50;;;;;;;8.48;4.00;;;24.40;72.20;;;;;;5074284;28;20040;-68
2022/05/25 06:51:20;;;;;;;7.22;4.28;;;24.80;72.90;;;;;;5076251;28;20045;-68
2022/05/25 06:53:46;;;;;;;6.97;3.83;;;24.20;72.50;;;;;;5052452;28;20094;-67
2022/05/25 06:56:12;;;;;;;9.63;4.15;;;24.70;72.60;;;;;;5074935;28;20479;-67
2022/05/25 06:58:37;;;;;;;7.20;4.20;;;24.40;72.20;;;;;;5056570;28;20041;-68
2022/05/25 07:01:03;;;;;;;7.97;3.80;;;24.50;72.30;;;;;;5074827;28;20406;-68
2022/05/25 07:03:30;;;;;;;7.45;3.83;;;24.40;72.10;;;;;;5075954;28;20080;-68
2022/05/25 07:05:55;;;;;;;7.15;3.40;;;24.80;72.60;;;;;;5108325;28;20068;-68
2022/05/25 07:08:21;;;;;;;5.68;3.50;;;24.80;72.50;;;;;;5073311;28;20084;-68
2022/05/25 07:10:47;;;;;;;7.30;3.47;;;24.80;72.30;;;;;;5074514;28;20045;-68
2022/05/25 07:13:17;;;;;;;6.93;3.20;;;24.70;72.00;;;;;;5066638;28;20040;-68
2022/05/25 07:15:43;;;;;;;5.80;3.70;;;24.70;72.40;;;;;;5074091;28;20542;-67
2022/05/25 07:18:09;;;;;;;8.20;4.75;;;24.60;72.20;;;;;;5075944;28;20044;-68
2022/05/25 07:20:34;;;;;;;6.28;4.00;;;25.60;72.80;;;;;;5075272;28;20067;-68
2022/05/25 07:23:00;;;;;;;6.68;3.95;;;24.80;72.30;;;;;;5074440;28;20127;-68
2022/05/25 07:25:26;;;;;;;6.72;4.32;;;24.60;72.40;;;;;;5074329;28;20063;-68
2022/05/25 07:27:52;;;;;;;8.82;4.40;;;24.70;72.50;;;;;;5075102;28;20131;-68
2022/05/25 07:30:18;;;;;;;7.85;3.92;;;24.40;72.30;;;;;;5074671;28;20127;-68
2022/05/25 07:32:45;;;;;;;8.27;4.13;;;24.60;72.50;;;;;;5074586;28;20436;-68
2022/05/25 07:35:11;;;;;;;5.95;3.38;;;24.30;72.70;;;;;;5074208;28;20048;-68
2022/05/25 07:37:38;;;;;;;7.63;3.70;;;24.60;72.90;;;;;;5070618;28;20064;-68
2022/05/25 07:40:06;;;;;;;6.28;3.65;;;24.60;72.70;;;;;;5073955;28;20394;-68
2022/05/25 07:42:31;;;;;;;6.85;3.65;;;24.70;72.40;;;;;;5057555;28;20445;-68
2022/05/25 07:44:58;;;;;;;7.47;3.35;;;24.60;72.30;;;;;;5071479;28;20045;-68
2022/05/25 07:47:25;;;;;;;6.47;3.67;;;24.80;72.70;;;;;;5080459;28;20506;-68
2022/05/25 07:49:51;;;;;;;5.82;2.95;;;24.80;72.80;;;;;;5057058;28;20048;-67
2022/05/25 07:52:18;;;;;;;6.22;2.80;;;24.80;72.60;;;;;;5072422;28;20052;-67
2022/05/25 07:54:44;;;;;;;6.50;3.20;;;24.80;72.70;;;;;;5059160;28;20084;-67
2022/05/25 07:57:10;;;;;;;7.50;2.72;;;24.80;72.70;;;;;;5072183;28;20076;-66
2022/05/25 07:59:36;;;;;;;7.47;3.15;;;24.70;72.10;;;;;;5105373;28;20056;-65
2022/05/25 08:07:36;;;;;;;7.97;3.08;;;25.00;70.80;;;;;;5059397;28;20059;-65
2022/05/25 08:10:08;;;;;;;5.95;2.38;;;25.00;72.00;;;;;;5088593;28;20106;-63
2022/05/25 08:12:35;;;;;;;5.70;2.33;;;24.90;71.80;;;;;;5051829;28;20114;-66
2022/05/25 08:15:01;;;;;;;5.13;2.08;;;25.10;72.10;;;;;;5068915;28;20393;-65
2022/05/25 08:17:27;;;;;;;6.38;2.45;;;24.70;71.50;;;;;;5072934;28;20045;-65
2022/05/25 08:19:52;;;;;;;4.13;2.03;;;24.80;71.40;;;;;;5056736;28;20056;-66
2022/05/25 08:22:18;;;;;;;8.27;2.83;;;25.20;71.80;;;;;;5072419;28;20110;-66
2022/05/25 08:24:44;;;;;;;5.72;2.60;;;25.10;71.50;;;;;;5073045;28;20110;-64
2022/05/25 08:27:09;;;;;;;6.15;2.05;;;25.10;71.50;;;;;;5090281;28;20049;-66
2022/05/25 08:29:35;;;;;;;5.82;2.33;;;25.30;71.50;;;;;;5073199;28;20089;-67
2022/05/25 08:32:01;;;;;;;4.70;2.15;;;25.20;71.50;;;;;;5070445;28;20049;-66
2022/05/25 08:34:28;;;;;;;3.88;2.10;;;25.30;71.40;;;;;;5072007;28;20486;-66
2022/05/25 08:36:54;;;;;;;3.92;1.83;;;25.30;71.50;;;;;;5055640;28;20080;-66
2022/05/25 08:39:19;;;;;;;4.80;1.75;;;25.20;71.00;;;;;;5089877;28;20540;-66
2022/05/25 08:41:45;;;;;;;4.32;2.17;;;25.20;71.00;;;;;;5072971;28;20093;-68
2022/05/25 08:44:11;;;;;;;5.80;1.83;;;25.40;70.90;;;;;;5089940;28;20044;-68
2022/05/25 08:46:37;;;;;;;4.43;1.70;;;25.50;71.00;;;;;;5087903;28;20536;-66
2022/05/25 08:49:05;;;;;;;4.47;2.00;;;25.40;71.00;;;;;;5074633;28;20048;-63
2022/05/25 08:51:31;;;;;;;6.15;2.20;;;25.40;71.50;;;;;;5090008;28;20056;-64
2022/05/25 08:53:58;;;;;;;5.80;2.22;;;25.40;70.70;;;;;;5072907;28;20061;-65
2022/05/25 08:56:32;;;;;;;3.97;2.22;;;25.30;70.70;;;;;;5059450;28;20545;-65
2022/05/25 08:59:21;;;;;;;6.18;2.38;;;25.20;69.40;;;;;;5089521;28;20044;-63
2022/05/25 09:02:10;;;;;;;5.13;2.20;;;24.90;70.40;;;;;;5062477;28;20048;-65
2022/05/25 09:05:05;;;;;;;4.72;2.00;;;24.80;69.90;;;;;;5072300;28;20146;-66
2022/05/25 09:07:49;;;;;;;4.45;1.80;;;24.80;69.30;;;;;;5087419;28;20056;-64
2022/05/25 09:10:15;;;;;;;3.58;1.90;;;24.80;69.50;;;;;;5077857;28;20078;-66
2022/05/25 09:12:50;;;;;;;5.82;2.08;;;24.90;70.60;;;;;;5054318;28;20036;-67
2022/05/25 09:15:34;;;;;;;3.20;1.85;;;24.70;69.20;;;;;;5038136;28;20048;-64
2022/05/25 09:18:01;;;;;;;7.25;1.80;;;25.00;69.10;;;;;;5055147;28;20049;-67
2022/05/25 09:20:38;;;;;;;4.57;1.75;;;25.20;70.30;;;;;;5071264;28;20522;-67
2022/05/25 09:23:04;;;;;;;3.88;1.60;;;25.00;71.30;;;;;;5071582;28;20053;-65
2022/05/25 09:25:30;;;;;;;6.10;1.70;;;25.00;69.70;;;;;;5072542;28;20193;-66
2022/05/25 09:28:07;;;;;;;4.82;1.60;;;24.90;69.70;;;;;;5076163;28;20054;-63
2022/05/25 09:30:35;;;;;;;3.33;1.58;;;25.20;68.70;;;;;;5089184;28;20044;-63
2022/05/25 09:33:35;;;;;;;5.90;1.48;;;25.20;70.40;;;;;;5077554;28;20048;-63
2022/05/25 09:36:15;;;;;;;3.40;1.58;;;25.00;68.50;;;;;;5088957;28;20401;-66
2022/05/25 09:38:45;;;;;;;4.65;1.50;;;25.00;70.10;;;;;;5088289;28;20127;-65
2022/05/25 09:41:21;;;;;;;5.22;1.80;;;25.10;69.80;;;;;;5088482;28;20055;-63
2022/05/25 09:43:50;;;;;;;3.70;1.80;;;24.80;70.00;;;;;;5089023;28;20489;-63
2022/05/25 09:46:19;;;;;;;6.95;2.25;;;24.60;69.70;;;;;;5088935;28;20106;-65
2022/05/25 09:48:50;;;;;;;3.28;1.50;;;24.70;69.90;;;;;;5072380;28;20465;-62
2022/05/25 09:51:25;;;;;;;4.70;2.00;;;24.60;70.00;;;;;;5088825;28;20444;-62
2022/05/25 09:54:18;;;;;;;4.28;2.10;;;24.70;70.30;;;;;;5105006;28;20048;-62
2022/05/25 09:56:44;;;;;;;;;;;24.80;70.00;;;;;;5051379;28;20060;-62
2022/05/25 09:59:14;;;;;;;3.90;1.88;;;24.60;69.80;;;;;;5051156;28;19921;-64
2022/05/25 10:01:44;;;;;;;3.85;1.80;;;24.30;70.30;;;;;;5033600;28;20498;-64
2022/05/25 10:04:36;;;;;;;6.20;2.05;;;24.40;68.80;;;;;;5050172;28;20058;-65
2022/05/25 10:07:12;;;;;;;6.28;2.40;;;24.40;68.90;;;;;;5043024;28;20080;-65
2022/05/25 10:09:38;;;;;;;4.20;2.30;;;24.50;70.40;;;;;;5033105;28;20502;-67
2022/05/25 10:12:18;;;;;;;6.75;2.75;;;24.60;70.60;;;;;;5033283;28;20052;-65
2022/05/25 10:15:13;;;;;;;7.38;3.25;;;24.20;70.80;;;;;;5001496;28;20497;-62
2022/05/25 10:17:43;;;;;;;4.63;2.20;;;24.20;71.20;;;;;;5054450;28;20107;-63
2022/05/25 10:20:47;;;;;;;7.60;2.55;;;23.90;69.20;;;;;;5054362;28;20599;-67
2022/05/25 10:23:20;;;;;;;4.93;2.33;;;24.20;70.20;;;;;;5017563;28;20194;-66
2022/05/25 10:25:50;;;;;;;6.50;2.10;;;23.90;69.60;;;;;;5050543;28;20057;-64
2022/05/25 10:28:21;;;;;;;8.27;1.90;;;24.10;74.30;;;;;;5033836;28;20061;-63
2022/05/25 10:37:08;;;;;;;8.85;2.45;;;24.20;70.10;;;;;;5011787;28;20057;-63
2022/05/25 10:39:37;;;;;;;9.57;2.10;;;24.20;69.70;;;;;;5022443;28;20084;-64
2022/05/25 10:42:22;;;;;;;8.02;2.10;;;24.10;71.20;;;;;;5004965;28;20123;-64
2022/05/25 10:45:19;;;;;;;6.93;2.30;;;24.30;69.90;;;;;;5037877;28;20112;-65
2022/05/25 10:47:51;;;;;;;5.47;1.70;;;24.10;69.90;;;;;;5052282;28;20053;-63
2022/05/25 10:50:56;;;;;;;5.82;2.03;;;24.30;71.30;;;;;;5053839;28;20029;-63
2022/05/25 10:53:36;;;;;;;8.98;2.83;;;24.30;70.00;;;;;;5007450;28;20171;-65
2022/05/25 10:56:04;;;;;;;6.15;1.98;;;24.20;71.40;;;;;;5001275;28;20095;-63
2022/05/25 10:58:57;;;;;;;6.80;2.10;;;24.30;69.70;;;;;;5046600;28;20141;-65
2022/05/25 11:01:39;;;;;;;7.05;1.63;;;24.00;69.80;;;;;;5024096;28;20049;-65
2022/05/25 11:04:08;;;;;;;3.00;1.60;;;24.20;69.90;;;;;;5074452;28;20079;-65
2022/05/25 11:06:49;;;;;;;7.30;2.25;;;24.00;69.60;;;;;;5074649;28;20278;-66
2022/05/25 11:09:23;;;;;;;3.97;1.85;;;23.90;70.00;;;;;;5071340;28;20056;-64
2022/05/25 11:12:05;;;;;;;3.95;1.40;;;23.70;71.30;;;;;;5058022;28;20131;-64
2022/05/25 11:14:47;;;;;;;3.70;1.42;;;23.90;69.90;;;;;;5059740;28;20044;-64
2022/05/25 11:17:31;;;;;;;4.03;1.80;;;23.80;70.10;;;;;;5074881;28;20040;-65
2022/05/25 11:20:09;;;;;;;4.30;2.10;;;24.00;71.50;;;;;;5074564;28;20053;-62
2022/05/25 11:22:54;;;;;;;5.60;2.08;;;23.90;71.50;;;;;;5076046;28;20045;-67
2022/05/25 11:25:39;;;;;;;6.68;2.75;;;23.60;69.90;;;;;;5063583;28;20098;-67
2022/05/25 11:28:51;;;;;;;6.97;2.83;;;23.70;71.70;;;;;;5105142;28;20051;-67
2022/05/25 11:31:20;;;;;;;3.78;1.92;;;23.80;70.30;;;;;;5033757;28;20054;-67
2022/05/25 11:34:24;;;;;;;4.45;2.20;;;23.30;71.40;;;;;;5017211;28;20443;-67
2022/05/25 11:37:08;;;;;;;6.72;2.97;;;23.40;72.30;;;;;;5040367;28;20048;-66
2022/05/25 11:40:08;;;;;;;7.35;3.10;;;23.20;74.70;;;;;;5032608;28;20064;-65
2022/05/25 11:43:12;;;;;;;7.07;2.80;;;23.50;70.80;;;;;;5041421;28;20084;-66
2022/05/25 11:45:50;;;;;;;6.28;2.67;;;23.40;70.70;;;;;;5035714;28;20049;-67
2022/05/25 11:48:28;;;;;;;7.05;3.25;;;23.00;71.90;;;;;;5034326;28;20512;-68
2022/05/25 11:51:33;;;;;;;6.03;2.67;;;22.80;70.90;;;;;;5028279;28;20055;-67
2022/05/25 11:54:04;;;;;;;6.65;3.55;;;22.90;70.70;;;;;;4974420;28;20062;-68
2022/05/25 11:56:45;;;;;;;6.50;2.90;;;23.10;71.10;;;;;;4958293;28;20058;-62
2022/05/25 11:59:14;;;;;;;5.05;2.78;;;22.90;72.90;;;;;;4975763;28;20081;-63
2022/05/25 12:01:59;;;;;;;10.52;2.67;;;22.60;71.20;;;;;;4981501;28;20165;-66
2022/05/25 12:04:39;;;;;;;11.60;2.70;;;22.70;73.10;;;;;;5028017;28;20141;-67
2022/05/25 12:07:26;;;;;;;10.88;3.20;;;22.60;71.70;;;;;;5010783;28;20100;-66
2022/05/25 12:10:03;;;;;;;12.00;3.45;;;22.90;71.80;;;;;;4978276;28;20447;-66
2022/05/25 12:12:42;;;;;;;6.47;2.45;;;22.80;75.70;;;;;;5010516;28;20663;-67
2022/05/25 12:15:58;;;;;;;6.80;2.40;;;22.80;73.10;;;;;;5025277;28;20046;-67
2022/05/25 12:18:25;;;;;;;8.15;2.80;;;22.70;71.20;;;;;;5002255;28;20078;-66
2022/05/25 12:20:51;;;;;;;6.30;2.70;;;22.70;72.30;;;;;;4980417;28;20125;-66
2022/05/25 12:23:22;;;;;;;7.60;3.50;;;22.70;74.90;;;;;;4994039;28;20193;-67
2022/05/25 12:25:56;;;;;;;7.60;2.97;;;22.70;75.00;;;;;;5050336;28;20139;-67
2022/05/25 12:28:28;;;;;;;7.13;2.90;;;22.40;75.00;;;;;;5038330;28;20410;-68
2022/05/25 12:30:58;;;;;;;9.10;3.83;;;22.50;72.60;;;;;;5039477;28;20173;-67
2022/05/25 12:33:24;;;;;;;17.40;4.40;;;22.40;71.80;;;;;;5016798;28;20052;-67
2022/05/25 12:35:50;;;;;;;12.98;4.32;;;22.40;75.30;;;;;;5056670;28;20131;-67
2022/05/25 12:38:16;;;;;;;9.10;3.90;;;22.30;75.70;;;;;;5035676;28;20171;-67
2022/05/25 12:40:43;;;;;;;10.90;3.33;;;22.10;72.50;;;;;;5054973;28;20063;-68
2022/05/25 12:43:40;;;;;;;8.15;3.13;;;22.00;76.50;;;;;;5038007;28;20044;-70
2022/05/25 12:49:06;;;;;;;8.73;3.10;;;21.80;76.70;;;;;;5058033;28;20485;-62
2022/05/25 12:51:36;;;;;;;7.78;3.00;;;21.90;74.70;;;;;;5071943;28;20048;-64
2022/05/25 12:54:05;;;;;;;4.28;2.60;;;21.90;72.80;;;;;;5058867;28;20087;-65
2022/05/25 12:56:35;;;;;;;4.72;2.70;;;21.90;77.30;;;;;;5070650;28;20497;-71
2022/05/25 12:59:24;;;;;;;6.32;2.70;;;22.00;78.00;;;;;;5052897;28;20110;-73
2022/05/25 13:02:11;;;;;;;6.68;2.80;;;21.70;75.00;;;;;;4995899;28;20116;-71
2022/05/25 13:04:47;;;;;;;9.45;2.20;;;22.00;77.70;;;;;;4995614;28;20514;-71
2022/05/25 13:07:46;;;;;;;6.60;2.50;;;22.20;75.00;;;;;;5008060;28;20061;-71
2022/05/25 13:10:31;;;;;;;6.65;2.20;;;22.30;77.00;;;;;;5004284;28;20073;-71
2022/05/25 13:12:59;;;;;;;5.28;2.13;;;22.20;73.10;;;;;;4992435;28;20081;-71
2022/05/25 13:15:24;;;;;;;7.30;2.08;;;22.60;73.90;;;;;;4992331;28;20121;-71
2022/05/25 13:17:59;;;;;;;7.40;2.08;;;22.50;76.60;;;;;;4993793;28;20184;-71
2022/05/25 13:20:27;;;;;;;4.43;1.77;;;22.30;72.50;;;;;;5011712;28;20049;-71
2022/05/25 13:23:01;;;;;;;7.10;1.98;;;22.50;73.70;;;;;;4995366;28;20053;-71
2022/05/25 13:25:56;;;;;;;4.40;1.90;;;22.70;73.70;;;;;;4994468;28;20438;-71
2022/05/25 13:28:27;;;;;;;5.30;1.70;;;22.60;72.40;;;;;;4988975;28;20074;-71
2022/05/25 13:31:04;;;;;;;4.93;2.30;;;22.80;72.20;;;;;;4997928;28;20377;-71
2022/05/25 13:33:43;;;;;;;4.18;1.85;;;22.90;72.20;;;;;;5011864;28;20050;-71
2022/05/25 13:36:22;;;;;;;5.50;1.90;;;23.00;72.10;;;;;;4978070;28;20052;-72
2022/05/25 13:39:00;;;;;;;6.85;2.10;;;22.70;72.00;;;;;;5040226;28;20401;-71
2022/05/25 13:41:33;;;;;;;4.10;1.80;;;23.10;72.20;;;;;;5071597;28;20055;-72